sensor_id;sensor_type;location;lat;lon;timestamp;temperature;humidity
31074;DHT22;17730;53.552;9.940;2022-08-01T00:00:23;18.60;99.90
31074;DHT22;17730;53.552;9.940;2022-08-01T00:02:49;18.60;99.90
31074;DHT22;17730;53.552;9.940;2022-08-01T00:05:14;18.60;99.90
31074;DHT22;17730;53.552;9.940;2022-08-01T00:07:40;18.60;99.90
31074;DHT22;17730;53.552;9.940;2022-08-01T00:10:12;18.60;99.90
31074;DHT22;17730;53.552;9.940;2022-08-01T00:12:38;18.60;99.90
31074;DHT22;17730;53.552;9.940;2022-08-01T00:15:05;18.60;99.90
31074;DHT22;17730;53.552;9.940;2022-08-01T00:17:31;18.60;99.90
31074;DHT22;17730;53.552;9.940;2022-08-01T00:19:57;18.60;99.90
31074;DHT22;17730;53.552;9.940;2022-08-01T00:22:23;18.60;99.90
31074;DHT22;17730;53.552;9.940;2022-08-01T00:24:48;18.60;99.90
31074;DHT22;17730;53.552;9.940;2022-08-01T00:27:14;18.60;99.90
31074;DHT22;17730;53.552;9.940;2022-08-01T00:29:39;18.60;99.90
31074;DHT22;17730;53.552;9.940;2022-08-01T00:32:05;18.60;99.90
31074;DHT22;17730;53.552;9.940;2022-08-01T00:34:31;18.60;99.90
31074;DHT22;17730;53.552;9.940;2022-08-01T00:36:56;18.50;99.90
31074;DHT22;17730;53.552;9.940;2022-08-01T00:39:22;18.60;99.90
31074;DHT22;17730;53.552;9.940;2022-08-01T00:41:47;18.50;99.90
31074;DHT22;17730;53.552;9.940;2022-08-01T00:44:13;18.60;99.90
31074;DHT22;17730;53.552;9.940;2022-08-01T00:46:38;18.50;99.90
31074;DHT22;17730;53.552;9.940;2022-08-01T00:49:05;18.50;99.90
31074;DHT22;17730;53.552;9.940;2022-08-01T00:51:31;18.50;99.90
31074;DHT22;17730;53.552;9.940;2022-08-01T00:53:56;18.50;99.90
31074;DHT22;17730;53.552;9.940;2022-08-01T00:56:25;18.50;99.90
31074;DHT22;17730;53.552;9.940;2022-08-01T00:58:51;18.50;99.90
31074;DHT22;17730;53.552;9.940;2022-08-01T01:01:17;18.60;99.90
31074;DHT22;17730;53.552;9.940;2022-08-01T01:03:46;18.60;99.90
31074;DHT22;17730;53.552;9.940;2022-08-01T01:06:27;18.60;99.90
31074;DHT22;17730;53.552;9.940;2022-08-01T01:09:12;18.60;99.90
31074;DHT22;17730;53.552;9.940;2022-08-01T01:15:15;18.50;99.90
31074;DHT22;17730;53.552;9.940;2022-08-01T01:17:58;18.50;99.90
31074;DHT22;17730;53.552;9.940;2022-08-01T01:20:30;18.60;99.90
31074;DHT22;17730;53.552;9.940;2022-08-01T01:25:42;18.50;99.90
31074;DHT22;17730;53.552;9.940;2022-08-01T01:28:27;18.50;99.90
31074;DHT22;17730;53.552;9.940;2022-08-01T01:30:57;18.50;99.90
31074;DHT22;17730;53.552;9.940;2022-08-01T01:33:25;18.50;99.90
31074;DHT22;17730;53.552;9.940;2022-08-01T01:36:00;18.50;99.90
31074;DHT22;17730;53.552;9.940;2022-08-01T01:38:29;18.40;99.90
31074;DHT22;17730;53.552;9.940;2022-08-01T01:40:57;18.40;99.90
31074;DHT22;17730;53.552;9.940;2022-08-01T01:43:24;18.50;99.90
31074;DHT22;17730;53.552;9.940;2022-08-01T01:45:52;18.50;99.90
31074;DHT22;17730;53.552;9.940;2022-08-01T01:48:19;18.40;99.90
31074;DHT22;17730;53.552;9.940;2022-08-01T01:50:47;18.40;99.90
31074;DHT22;17730;53.552;9.940;2022-08-01T01:53:19;18.40;99.90
31074;DHT22;17730;53.552;9.940;2022-08-01T01:55:47;18.40;99.90
31074;DHT22;17730;53.552;9.940;2022-08-01T01:58:14;18.40;99.90
31074;DHT22;17730;53.552;9.940;2022-08-01T02:00:42;18.30;99.90
31074;DHT22;17730;53.552;9.940;2022-08-01T02:03:10;18.30;99.90
31074;DHT22;17730;53.552;9.940;2022-08-01T02:05:37;18.30;99.90
31074;DHT22;17730;53.552;9.940;2022-08-01T02:08:04;18.30;99.90
31074;DHT22;17730;53.552;9.940;2022-08-01T02:10:31;18.30;99.90
31074;DHT22;17730;53.552;9.940;2022-08-01T02:13:02;18.30;99.90
31074;DHT22;17730;53.552;9.940;2022-08-01T02:15:30;18.30;99.90
31074;DHT22;17730;53.552;9.940;2022-08-01T02:17:57;18.30;99.90
31074;DHT22;17730;53.552;9.940;2022-08-01T02:20:24;18.30;99.90
31074;DHT22;17730;53.552;9.940;2022-08-01T02:23:08;18.30;99.90
31074;DHT22;17730;53.552;9.940;2022-08-01T02:25:49;18.30;99.90
31074;DHT22;17730;53.552;9.940;2022-08-01T02:28:21;18.30;99.90
31074;DHT22;17730;53.552;9.940;2022-08-01T02:30:50;18.20;99.90
31074;DHT22;17730;53.552;9.940;2022-08-01T02:33:23;18.30;99.90
31074;DHT22;17730;53.552;9.940;2022-08-01T02:35:54;18.30;99.90
31074;DHT22;17730;53.552;9.940;2022-08-01T02:38:24;18.20;99.90
31074;DHT22;17730;53.552;9.940;2022-08-01T02:40:52;18.20;99.90
31074;DHT22;17730;53.552;9.940;2022-08-01T02:43:21;18.20;99.90
31074;DHT22;17730;53.552;9.940;2022-08-01T02:45:53;18.20;99.90
31074;DHT22;17730;53.552;9.940;2022-08-01T02:48:20;18.20;99.90
31074;DHT22;17730;53.552;9.940;2022-08-01T02:50:48;18.20;99.90
31074;DHT22;17730;53.552;9.940;2022-08-01T02:53:16;18.20;99.90
31074;DHT22;17730;53.552;9.940;2022-08-01T02:55:43;18.20;99.90
31074;DHT22;17730;53.552;9.940;2022-08-01T02:58:14;18.20;99.90
31074;DHT22;17730;53.552;9.940;2022-08-01T03:00:42;18.20;99.90
31074;DHT22;17730;53.552;9.940;2022-08-01T03:03:09;18.20;99.90
31074;DHT22;17730;53.552;9.940;2022-08-01T03:05:36;18.20;99.90
31074;DHT22;17730;53.552;9.940;2022-08-01T03:08:03;18.20;99.90
31074;DHT22;17730;53.552;9.940;2022-08-01T03:10:31;18.20;99.90
31074;DHT22;17730;53.552;9.940;2022-08-01T03:12:58;18.20;99.90
31074;DHT22;17730;53.552;9.940;2022-08-01T03:15:26;18.20;99.90
31074;DHT22;17730;53.552;9.940;2022-08-01T03:17:53;18.20;99.90
31074;DHT22;17730;53.552;9.940;2022-08-01T03:20:21;18.20;99.90
31074;DHT22;17730;53.552;9.940;2022-08-01T03:22:50;18.20;99.90
31074;DHT22;17730;53.552;9.940;2022-08-01T03:25:18;18.10;99.90
31074;DHT22;17730;53.552;9.940;2022-08-01T03:27:50;18.20;99.90
31074;DHT22;17730;53.552;9.940;2022-08-01T03:30:17;18.20;99.90
31074;DHT22;17730;53.552;9.940;2022-08-01T03:32:42;18.10;99.90
31074;DHT22;17730;53.552;9.940;2022-08-01T03:35:08;18.20;99.90
31074;DHT22;17730;53.552;9.940;2022-08-01T03:37:42;18.10;99.90
31074;DHT22;17730;53.552;9.940;2022-08-01T03:42:44;18.10;99.90
31074;DHT22;17730;53.552;9.940;2022-08-01T03:45:14;18.10;99.90
31074;DHT22;17730;53.552;9.940;2022-08-01T03:47:43;18.20;99.90
31074;DHT22;17730;53.552;9.940;2022-08-01T03:50:10;18.20;99.90
31074;DHT22;17730;53.552;9.940;2022-08-01T03:52:38;18.20;99.90
31074;DHT22;17730;53.552;9.940;2022-08-01T03:55:06;18.20;99.90
31074;DHT22;17730;53.552;9.940;2022-08-01T03:57:33;18.20;99.90
31074;DHT22;17730;53.552;9.940;2022-08-01T04:00:00;18.20;99.90
31074;DHT22;17730;53.552;9.940;2022-08-01T04:02:29;18.20;99.90
31074;DHT22;17730;53.552;9.940;2022-08-01T04:04:55;18.20;99.90
31074;DHT22;17730;53.552;9.940;2022-08-01T04:07:25;18.20;99.90
31074;DHT22;17730;53.552;9.940;2022-08-01T04:09:51;18.10;99.90
31074;DHT22;17730;53.552;9.940;2022-08-01T04:12:17;18.20;99.90
31074;DHT22;17730;53.552;9.940;2022-08-01T04:14:43;18.10;99.90
31074;DHT22;17730;53.552;9.940;2022-08-01T04:17:09;18.20;99.90
31074;DHT22;17730;53.552;9.940;2022-08-01T04:19:34;18.10;99.90
31074;DHT22;17730;53.552;9.940;2022-08-01T04:22:00;18.20;99.90
31074;DHT22;17730;53.552;9.940;2022-08-01T04:24:28;18.10;99.90
31074;DHT22;17730;53.552;9.940;2022-08-01T04:26:57;18.20;99.90
31074;DHT22;17730;53.552;9.940;2022-08-01T04:29:24;18.10;99.90
31074;DHT22;17730;53.552;9.940;2022-08-01T04:31:53;18.10;99.90
31074;DHT22;17730;53.552;9.940;2022-08-01T04:34:22;18.10;99.90
31074;DHT22;17730;53.552;9.940;2022-08-01T04:36:49;18.20;99.90
31074;DHT22;17730;53.552;9.940;2022-08-01T04:39:16;18.20;99.90
31074;DHT22;17730;53.552;9.940;2022-08-01T04:41:44;18.20;99.90
31074;DHT22;17730;53.552;9.940;2022-08-01T04:44:12;18.10;99.90
31074;DHT22;17730;53.552;9.940;2022-08-01T04:46:39;18.20;99.90
31074;DHT22;17730;53.552;9.940;2022-08-01T04:49:06;18.20;99.90
31074;DHT22;17730;53.552;9.940;2022-08-01T04:51:34;18.10;99.90
31074;DHT22;17730;53.552;9.940;2022-08-01T04:53:59;18.10;99.90
31074;DHT22;17730;53.552;9.940;2022-08-01T04:56:26;18.10;99.90
31074;DHT22;17730;53.552;9.940;2022-08-01T04:58:52;18.10;99.90
31074;DHT22;17730;53.552;9.940;2022-08-01T05:01:38;18.10;99.90
31074;DHT22;17730;53.552;9.940;2022-08-01T05:04:03;18.10;99.90
31074;DHT22;17730;53.552;9.940;2022-08-01T05:06:29;18.10;99.90
31074;DHT22;17730;53.552;9.940;2022-08-01T05:08:54;18.10;99.90
31074;DHT22;17730;53.552;9.940;2022-08-01T05:11:21;18.10;99.90
31074;DHT22;17730;53.552;9.940;2022-08-01T05:13:47;18.10;99.90
31074;DHT22;17730;53.552;9.940;2022-08-01T05:16:13;18.10;99.90
31074;DHT22;17730;53.552;9.940;2022-08-01T05:18:38;18.10;99.90
31074;DHT22;17730;53.552;9.940;2022-08-01T05:21:04;18.10;99.90
31074;DHT22;17730;53.552;9.940;2022-08-01T05:23:29;18.10;99.90
31074;DHT22;17730;53.552;9.940;2022-08-01T05:25:55;18.10;99.90
31074;DHT22;17730;53.552;9.940;2022-08-01T05:28:21;18.10;99.90
31074;DHT22;17730;53.552;9.940;2022-08-01T05:30:46;18.20;99.90
31074;DHT22;17730;53.552;9.940;2022-08-01T05:33:12;18.10;99.90
31074;DHT22;17730;53.552;9.940;2022-08-01T05:35:37;18.20;99.90
31074;DHT22;17730;53.552;9.940;2022-08-01T05:38:03;18.20;99.90
31074;DHT22;17730;53.552;9.940;2022-08-01T05:40:28;18.20;99.90
31074;DHT22;17730;53.552;9.940;2022-08-01T05:42:54;18.20;99.90
31074;DHT22;17730;53.552;9.940;2022-08-01T05:45:19;18.20;99.90
31074;DHT22;17730;53.552;9.940;2022-08-01T05:47:45;18.20;99.90
31074;DHT22;17730;53.552;9.940;2022-08-01T05:50:11;18.20;99.90
31074;DHT22;17730;53.552;9.940;2022-08-01T05:52:36;18.20;99.90
31074;DHT22;17730;53.552;9.940;2022-08-01T05:55:03;18.20;99.90
31074;DHT22;17730;53.552;9.940;2022-08-01T05:57:28;18.20;99.90
31074;DHT22;17730;53.552;9.940;2022-08-01T05:59:54;18.10;99.90
31074;DHT22;17730;53.552;9.940;2022-08-01T06:02:20;18.10;99.90
31074;DHT22;17730;53.552;9.940;2022-08-01T06:04:45;18.10;99.90
31074;DHT22;17730;53.552;9.940;2022-08-01T06:07:11;18.10;99.90
31074;DHT22;17730;53.552;9.940;2022-08-01T06:09:36;18.20;99.90
31074;DHT22;17730;53.552;9.940;2022-08-01T06:12:02;18.30;99.90
31074;DHT22;17730;53.552;9.940;2022-08-01T06:14:28;18.30;99.90
31074;DHT22;17730;53.552;9.940;2022-08-01T06:16:54;18.40;99.90
31074;DHT22;17730;53.552;9.940;2022-08-01T06:19:19;18.60;99.90
31074;DHT22;17730;53.552;9.940;2022-08-01T06:21:45;18.80;99.90
31074;DHT22;17730;53.552;9.940;2022-08-01T06:24:11;18.80;99.90
31074;DHT22;17730;53.552;9.940;2022-08-01T06:26:36;18.80;99.90
31074;DHT22;17730;53.552;9.940;2022-08-01T06:29:02;18.90;99.90
31074;DHT22;17730;53.552;9.940;2022-08-01T06:31:28;19.00;99.90
31074;DHT22;17730;53.552;9.940;2022-08-01T06:33:53;19.00;99.90
31074;DHT22;17730;53.552;9.940;2022-08-01T06:36:20;18.90;99.90
31074;DHT22;17730;53.552;9.940;2022-08-01T06:38:46;18.90;99.90
31074;DHT22;17730;53.552;9.940;2022-08-01T06:41:11;18.90;99.90
31074;DHT22;17730;53.552;9.940;2022-08-01T06:43:37;18.80;99.90
31074;DHT22;17730;53.552;9.940;2022-08-01T06:46:03;18.90;99.90
31074;DHT22;17730;53.552;9.940;2022-08-01T06:48:29;18.90;99.90
31074;DHT22;17730;53.552;9.940;2022-08-01T06:50:54;18.80;99.90
31074;DHT22;17730;53.552;9.940;2022-08-01T06:53:36;18.70;99.90
31074;DHT22;17730;53.552;9.940;2022-08-01T06:56:03;18.70;99.90
31074;DHT22;17730;53.552;9.940;2022-08-01T06:58:29;18.70;99.90
31074;DHT22;17730;53.552;9.940;2022-08-01T07:00:54;18.80;99.90
31074;DHT22;17730;53.552;9.940;2022-08-01T07:03:20;18.90;99.90
31074;DHT22;17730;53.552;9.940;2022-08-01T07:05:46;19.00;99.90
31074;DHT22;17730;53.552;9.940;2022-08-01T07:08:12;19.00;99.90
31074;DHT22;17730;53.552;9.940;2022-08-01T07:10:37;18.90;99.90
31074;DHT22;17730;53.552;9.940;2022-08-01T07:13:03;18.90;99.90
31074;DHT22;17730;53.552;9.940;2022-08-01T07:15:28;19.00;99.90
31074;DHT22;17730;53.552;9.940;2022-08-01T07:17:54;18.80;99.90
31074;DHT22;17730;53.552;9.940;2022-08-01T07:20:20;18.80;99.90
31074;DHT22;17730;53.552;9.940;2022-08-01T07:22:45;18.70;99.90
31074;DHT22;17730;53.552;9.940;2022-08-01T07:25:11;18.50;99.90
31074;DHT22;17730;53.552;9.940;2022-08-01T07:27:36;18.70;99.90
31074;DHT22;17730;53.552;9.940;2022-08-01T07:30:04;18.60;99.90
31074;DHT22;17730;53.552;9.940;2022-08-01T07:32:30;18.70;99.90
31074;DHT22;17730;53.552;9.940;2022-08-01T07:34:56;18.90;99.90
31074;DHT22;17730;53.552;9.940;2022-08-01T07:37:21;19.10;99.90
31074;DHT22;17730;53.552;9.940;2022-08-01T07:39:47;19.10;99.90
31074;DHT22;17730;53.552;9.940;2022-08-01T07:42:13;19.30;99.90
31074;DHT22;17730;53.552;9.940;2022-08-01T07:44:39;19.50;99.90
31074;DHT22;17730;53.552;9.940;2022-08-01T07:47:05;19.40;99.90
31074;DHT22;17730;53.552;9.940;2022-08-01T07:49:31;19.50;99.90
31074;DHT22;17730;53.552;9.940;2022-08-01T07:51:56;19.60;99.90
31074;DHT22;17730;53.552;9.940;2022-08-01T07:54:22;19.80;99.90
31074;DHT22;17730;53.552;9.940;2022-08-01T07:56:50;19.60;99.90
31074;DHT22;17730;53.552;9.940;2022-08-01T07:59:15;19.70;99.90
31074;DHT22;17730;53.552;9.940;2022-08-01T08:01:41;19.70;99.90
31074;DHT22;17730;53.552;9.940;2022-08-01T08:04:07;19.70;99.90
31074;DHT22;17730;53.552;9.940;2022-08-01T08:06:32;19.60;99.90
31074;DHT22;17730;53.552;9.940;2022-08-01T08:08:58;19.70;99.90
31074;DHT22;17730;53.552;9.940;2022-08-01T08:11:23;19.70;99.90
31074;DHT22;17730;53.552;9.940;2022-08-01T08:13:49;19.50;99.90
31074;DHT22;17730;53.552;9.940;2022-08-01T08:16:14;19.60;99.90
31074;DHT22;17730;53.552;9.940;2022-08-01T08:18:40;19.80;99.90
31074;DHT22;17730;53.552;9.940;2022-08-01T08:21:05;19.80;94.30
31074;DHT22;17730;53.552;9.940;2022-08-01T08:23:31;20.00;99.90
31074;DHT22;17730;53.552;9.940;2022-08-01T08:26:15;19.90;99.90
31074;DHT22;17730;53.552;9.940;2022-08-01T08:28:41;19.90;99.90
31074;DHT22;17730;53.552;9.940;2022-08-01T08:31:07;19.80;99.90
31074;DHT22;17730;53.552;9.940;2022-08-01T08:33:33;19.60;99.90
31074;DHT22;17730;53.552;9.940;2022-08-01T08:35:58;19.60;99.90
31074;DHT22;17730;53.552;9.940;2022-08-01T08:38:24;19.50;99.90
31074;DHT22;17730;53.552;9.940;2022-08-01T08:40:52;19.50;99.90
31074;DHT22;17730;53.552;9.940;2022-08-01T08:43:18;19.60;99.90
31074;DHT22;17730;53.552;9.940;2022-08-01T08:45:45;19.70;99.90
31074;DHT22;17730;53.552;9.940;2022-08-01T08:48:12;19.70;99.90
31074;DHT22;17730;53.552;9.940;2022-08-01T08:50:38;20.00;99.90
31074;DHT22;17730;53.552;9.940;2022-08-01T08:53:04;20.30;99.90
31074;DHT22;17730;53.552;9.940;2022-08-01T08:55:30;20.30;99.90
31074;DHT22;17730;53.552;9.940;2022-08-01T08:57:56;20.20;99.90
31074;DHT22;17730;53.552;9.940;2022-08-01T09:00:23;20.20;99.90
31074;DHT22;17730;53.552;9.940;2022-08-01T09:02:49;19.90;99.90
31074;DHT22;17730;53.552;9.940;2022-08-01T09:05:15;19.90;99.90
31074;DHT22;17730;53.552;9.940;2022-08-01T09:07:42;20.10;99.90
31074;DHT22;17730;53.552;9.940;2022-08-01T09:10:08;20.10;99.90
31074;DHT22;17730;53.552;9.940;2022-08-01T09:12:39;19.90;99.90
31074;DHT22;17730;53.552;9.940;2022-08-01T09:15:05;20.10;99.90
31074;DHT22;17730;53.552;9.940;2022-08-01T09:17:40;20.30;99.90
31074;DHT22;17730;53.552;9.940;2022-08-01T09:20:06;20.70;99.90
31074;DHT22;17730;53.552;9.940;2022-08-01T09:22:33;21.00;99.90
31074;DHT22;17730;53.552;9.940;2022-08-01T09:25:02;21.00;99.90
31074;DHT22;17730;53.552;9.940;2022-08-01T09:27:28;20.70;99.90
31074;DHT22;17730;53.552;9.940;2022-08-01T09:29:54;20.50;99.90
31074;DHT22;17730;53.552;9.940;2022-08-01T09:32:31;20.60;99.90
31074;DHT22;17730;53.552;9.940;2022-08-01T09:34:58;20.90;99.90
31074;DHT22;17730;53.552;9.940;2022-08-01T09:37:49;21.10;99.90
31074;DHT22;17730;53.552;9.940;2022-08-01T09:40:14;21.10;99.90
31074;DHT22;17730;53.552;9.940;2022-08-01T09:42:40;20.70;99.90
31074;DHT22;17730;53.552;9.940;2022-08-01T09:45:07;20.60;99.90
31074;DHT22;17730;53.552;9.940;2022-08-01T09:47:39;20.70;99.90
31074;DHT22;17730;53.552;9.940;2022-08-01T09:50:05;21.00;99.90
31074;DHT22;17730;53.552;9.940;2022-08-01T09:52:31;21.00;99.90
31074;DHT22;17730;53.552;9.940;2022-08-01T09:55:03;20.90;99.90
31074;DHT22;17730;53.552;9.940;2022-08-01T09:57:29;20.90;99.90
31074;DHT22;17730;53.552;9.940;2022-08-01T09:59:57;20.90;99.90
31074;DHT22;17730;53.552;9.940;2022-08-01T10:02:35;20.80;99.90
31074;DHT22;17730;53.552;9.940;2022-08-01T10:05:09;20.70;99.90
31074;DHT22;17730;53.552;9.940;2022-08-01T10:07:38;20.70;99.90
31074;DHT22;17730;53.552;9.940;2022-08-01T10:10:19;20.70;99.90
31074;DHT22;17730;53.552;9.940;2022-08-01T10:12:45;20.60;99.90
31074;DHT22;17730;53.552;9.940;2022-08-01T10:15:15;20.30;99.90
31074;DHT22;17730;53.552;9.940;2022-08-01T10:17:49;20.50;99.90
31074;DHT22;17730;53.552;9.940;2022-08-01T10:20:20;20.70;99.90
31074;DHT22;17730;53.552;9.940;2022-08-01T10:22:46;20.90;99.90
31074;DHT22;17730;53.552;9.940;2022-08-01T10:25:13;20.90;99.90
31074;DHT22;17730;53.552;9.940;2022-08-01T10:27:43;20.90;99.90
31074;DHT22;17730;53.552;9.940;2022-08-01T10:30:11;21.00;99.90
31074;DHT22;17730;53.552;9.940;2022-08-01T10:32:37;21.30;99.90
31074;DHT22;17730;53.552;9.940;2022-08-01T10:35:04;21.50;99.90
31074;DHT22;17730;53.552;9.940;2022-08-01T10:37:30;21.30;99.90
31074;DHT22;17730;53.552;9.940;2022-08-01T10:39:56;21.40;99.90
31074;DHT22;17730;53.552;9.940;2022-08-01T10:42:22;21.40;99.90
31074;DHT22;17730;53.552;9.940;2022-08-01T10:44:49;21.30;99.90
31074;DHT22;17730;53.552;9.940;2022-08-01T10:47:25;21.10;99.90
31074;DHT22;17730;53.552;9.940;2022-08-01T10:50:01;21.00;99.90
31074;DHT22;17730;53.552;9.940;2022-08-01T10:52:27;21.00;99.90
31074;DHT22;17730;53.552;9.940;2022-08-01T10:55:07;21.10;99.90
31074;DHT22;17730;53.552;9.940;2022-08-01T10:57:44;21.30;99.90
31074;DHT22;17730;53.552;9.940;2022-08-01T11:00:17;21.40;99.90
31074;DHT22;17730;53.552;9.940;2022-08-01T11:03:00;21.20;99.90
31074;DHT22;17730;53.552;9.940;2022-08-01T11:05:30;20.90;99.90
31074;DHT22;17730;53.552;9.940;2022-08-01T11:08:01;20.90;99.90
31074;DHT22;17730;53.552;9.940;2022-08-01T11:10:41;21.00;99.90
31074;DHT22;17730;53.552;9.940;2022-08-01T11:13:10;21.00;99.90
31074;DHT22;17730;53.552;9.940;2022-08-01T11:15:38;21.20;99.90
31074;DHT22;17730;53.552;9.940;2022-08-01T11:20:57;20.90;99.90
31074;DHT22;17730;53.552;9.940;2022-08-01T11:23:23;21.20;99.90
31074;DHT22;17730;53.552;9.940;2022-08-01T11:30:44;21.30;99.90
31074;DHT22;17730;53.552;9.940;2022-08-01T11:33:12;21.20;99.90
31074;DHT22;17730;53.552;9.940;2022-08-01T11:38:37;21.10;99.90
31074;DHT22;17730;53.552;9.940;2022-08-01T11:41:16;21.00;99.90
31074;DHT22;17730;53.552;9.940;2022-08-01T11:43:58;21.20;99.90
31074;DHT22;17730;53.552;9.940;2022-08-01T11:49:32;21.30;99.90
31074;DHT22;17730;53.552;9.940;2022-08-01T11:54:31;21.50;99.60
31074;DHT22;17730;53.552;9.940;2022-08-01T11:56:58;21.60;99.90
31074;DHT22;17730;53.552;9.940;2022-08-01T11:59:24;21.50;99.90
31074;DHT22;17730;53.552;9.940;2022-08-01T12:01:50;21.60;99.90
31074;DHT22;17730;53.552;9.940;2022-08-01T12:04:15;21.40;99.90
31074;DHT22;17730;53.552;9.940;2022-08-01T12:06:41;21.10;99.90
31074;DHT22;17730;53.552;9.940;2022-08-01T12:09:17;21.10;99.90
31074;DHT22;17730;53.552;9.940;2022-08-01T12:11:43;21.40;99.50
31074;DHT22;17730;53.552;9.940;2022-08-01T12:14:08;21.50;99.90
31074;DHT22;17730;53.552;9.940;2022-08-01T12:16:34;21.50;99.90
31074;DHT22;17730;53.552;9.940;2022-08-01T12:19:00;21.80;99.90
31074;DHT22;17730;53.552;9.940;2022-08-01T12:21:25;21.60;99.90
31074;DHT22;17730;53.552;9.940;2022-08-01T12:24:01;21.30;99.90
31074;DHT22;17730;53.552;9.940;2022-08-01T12:26:40;21.10;99.90
31074;DHT22;17730;53.552;9.940;2022-08-01T12:29:07;21.10;99.90
31074;DHT22;17730;53.552;9.940;2022-08-01T12:31:33;21.30;99.90
31074;DHT22;17730;53.552;9.940;2022-08-01T12:34:26;21.30;99.90
31074;DHT22;17730;53.552;9.940;2022-08-01T12:36:55;21.20;99.90
31074;DHT22;17730;53.552;9.940;2022-08-01T12:39:20;21.10;99.90
31074;DHT22;17730;53.552;9.940;2022-08-01T12:41:46;21.30;99.90
31074;DHT22;17730;53.552;9.940;2022-08-01T12:44:15;21.30;99.90
31074;DHT22;17730;53.552;9.940;2022-08-01T12:46:41;21.40;99.90
31074;DHT22;17730;53.552;9.940;2022-08-01T12:49:07;21.30;99.20
31074;DHT22;17730;53.552;9.940;2022-08-01T12:51:33;21.10;99.90
31074;DHT22;17730;53.552;9.940;2022-08-01T12:53:59;21.10;99.90
31074;DHT22;17730;53.552;9.940;2022-08-01T12:56:32;21.20;99.90
31074;DHT22;17730;53.552;9.940;2022-08-01T12:58:58;21.20;99.90
31074;DHT22;17730;53.552;9.940;2022-08-01T13:01:26;21.20;99.70
31074;DHT22;17730;53.552;9.940;2022-08-01T13:04:10;21.20;98.90
31074;DHT22;17730;53.552;9.940;2022-08-01T13:06:35;21.00;99.30
31074;DHT22;17730;53.552;9.940;2022-08-01T13:09:11;20.80;99.90
31074;DHT22;17730;53.552;9.940;2022-08-01T13:11:46;20.80;99.90
31074;DHT22;17730;53.552;9.940;2022-08-01T13:14:28;20.80;99.80
31074;DHT22;17730;53.552;9.940;2022-08-01T13:16:54;20.90;98.80
31074;DHT22;17730;53.552;9.940;2022-08-01T13:19:19;20.70;98.40
31074;DHT22;17730;53.552;9.940;2022-08-01T13:21:56;20.70;99.20
31074;DHT22;17730;53.552;9.940;2022-08-01T13:24:28;20.70;99.60
31074;DHT22;17730;53.552;9.940;2022-08-01T13:26:55;20.60;99.90
31074;DHT22;17730;53.552;9.940;2022-08-01T13:29:34;20.70;99.90
31074;DHT22;17730;53.552;9.940;2022-08-01T13:32:19;20.90;99.90
31074;DHT22;17730;53.552;9.940;2022-08-01T13:34:45;21.10;99.70
31074;DHT22;17730;53.552;9.940;2022-08-01T13:37:10;21.20;98.50
31074;DHT22;17730;53.552;9.940;2022-08-01T13:39:36;21.00;98.00
31074;DHT22;17730;53.552;9.940;2022-08-01T13:42:14;20.70;99.00
31074;DHT22;17730;53.552;9.940;2022-08-01T13:44:41;20.80;98.90
31074;DHT22;17730;53.552;9.940;2022-08-01T13:47:07;21.10;98.50
31074;DHT22;17730;53.552;9.940;2022-08-01T13:49:34;20.90;98.30
31074;DHT22;17730;53.552;9.940;2022-08-01T13:52:01;20.90;98.00
31074;DHT22;17730;53.552;9.940;2022-08-01T13:54:27;20.80;98.10
31074;DHT22;17730;53.552;9.940;2022-08-01T13:56:53;21.00;98.10
31074;DHT22;17730;53.552;9.940;2022-08-01T13:59:19;21.00;97.90
31074;DHT22;17730;53.552;9.940;2022-08-01T14:01:46;21.00;97.80
31074;DHT22;17730;53.552;9.940;2022-08-01T14:04:12;21.00;97.80
31074;DHT22;17730;53.552;9.940;2022-08-01T14:06:37;21.20;98.00
31074;DHT22;17730;53.552;9.940;2022-08-01T14:09:04;20.90;98.50
31074;DHT22;17730;53.552;9.940;2022-08-01T14:11:30;21.00;98.40
31074;DHT22;17730;53.552;9.940;2022-08-01T14:13:56;20.90;98.00
31074;DHT22;17730;53.552;9.940;2022-08-01T14:16:22;21.00;96.60
31074;DHT22;17730;53.552;9.940;2022-08-01T14:18:47;20.90;96.90
31074;DHT22;17730;53.552;9.940;2022-08-01T14:21:13;20.90;97.30
31074;DHT22;17730;53.552;9.940;2022-08-01T14:23:40;20.80;96.60
31074;DHT22;17730;53.552;9.940;2022-08-01T14:26:06;20.90;96.70
31074;DHT22;17730;53.552;9.940;2022-08-01T14:28:31;20.90;97.50
31074;DHT22;17730;53.552;9.940;2022-08-01T14:30:58;20.90;98.30
31074;DHT22;17730;53.552;9.940;2022-08-01T14:33:24;20.80;98.40
31074;DHT22;17730;53.552;9.940;2022-08-01T14:35:50;20.60;98.30
31074;DHT22;17730;53.552;9.940;2022-08-01T14:38:15;20.50;98.70
31074;DHT22;17730;53.552;9.940;2022-08-01T14:40:41;20.60;98.50
31074;DHT22;17730;53.552;9.940;2022-08-01T14:43:07;20.50;98.20
31074;DHT22;17730;53.552;9.940;2022-08-01T14:45:33;20.50;97.90
31074;DHT22;17730;53.552;9.940;2022-08-01T14:47:59;20.60;98.30
31074;DHT22;17730;53.552;9.940;2022-08-01T14:50:24;20.60;98.30
31074;DHT22;17730;53.552;9.940;2022-08-01T14:52:52;20.70;98.20
31074;DHT22;17730;53.552;9.940;2022-08-01T14:55:17;20.70;98.60
31074;DHT22;17730;53.552;9.940;2022-08-01T14:57:43;20.90;98.20
31074;DHT22;17730;53.552;9.940;2022-08-01T15:00:10;20.90;98.20
31074;DHT22;17730;53.552;9.940;2022-08-01T15:02:37;20.90;98.10
31074;DHT22;17730;53.552;9.940;2022-08-01T15:05:03;20.90;98.30
31074;DHT22;17730;53.552;9.940;2022-08-01T15:07:28;20.80;98.00
31074;DHT22;17730;53.552;9.940;2022-08-01T15:09:54;20.90;97.80
31074;DHT22;17730;53.552;9.940;2022-08-01T15:12:20;20.70;98.10
31074;DHT22;17730;53.552;9.940;2022-08-01T15:14:45;20.80;98.10
31074;DHT22;17730;53.552;9.940;2022-08-01T15:19:40;20.80;98.40
31074;DHT22;17730;53.552;9.940;2022-08-01T15:22:06;20.80;98.20
31074;DHT22;17730;53.552;9.940;2022-08-01T15:24:32;20.90;98.20
31074;DHT22;17730;53.552;9.940;2022-08-01T15:26:58;20.80;98.50
31074;DHT22;17730;53.552;9.940;2022-08-01T15:29:23;20.90;98.40
31074;DHT22;17730;53.552;9.940;2022-08-01T15:31:49;20.60;98.80
31074;DHT22;17730;53.552;9.940;2022-08-01T15:34:15;20.40;98.90
31074;DHT22;17730;53.552;9.940;2022-08-01T15:36:41;20.30;99.10
31074;DHT22;17730;53.552;9.940;2022-08-01T15:39:11;20.40;99.10
31074;DHT22;17730;53.552;9.940;2022-08-01T15:41:37;20.50;99.30
31074;DHT22;17730;53.552;9.940;2022-08-01T15:44:03;20.60;99.30
31074;DHT22;17730;53.552;9.940;2022-08-01T15:46:28;20.60;99.40
31074;DHT22;17730;53.552;9.940;2022-08-01T15:48:54;20.70;99.00
31074;DHT22;17730;53.552;9.940;2022-08-01T15:51:20;20.70;98.90
31074;DHT22;17730;53.552;9.940;2022-08-01T15:53:45;20.60;98.60
31074;DHT22;17730;53.552;9.940;2022-08-01T15:56:12;20.50;98.90
31074;DHT22;17730;53.552;9.940;2022-08-01T15:58:38;20.50;99.00
31074;DHT22;17730;53.552;9.940;2022-08-01T16:01:03;20.40;99.10